Time;durP1;ratioP1;P1;durP2;ratioP2;P2;SDS_P1;SDS_P2;PMS_P1;PMS_P2;Temp;Humidity;BMP_temperature;BMP_pressure;BME280_temperature;BME280_humidity;BME280_pressure;Samples;Min_cycle;Max_cycle;Signal;HPM_P1;HPM_P2
2021/06/27 00:02:17;;;;;;;1.65;1.40;;;;;;;29.25;49.34;100750.73;1655347;86;21041;-55
2021/06/27 00:04:44;;;;;;;1.65;1.40;;;;;;;29.27;49.84;100746.06;1658649;86;21025;-62
2021/06/27 00:07:12;;;;;;;1.67;1.30;;;;;;;29.32;50.13;100745.61;1642784;85;21034;-55
2021/06/27 00:09:40;;;;;;;3.08;1.30;;;;;;;29.35;50.23;100740.77;1650471;86;21157;-53
2021/06/27 00:12:09;;;;;;;2.27;1.25;;;;;;;29.39;50.19;100752.02;1647530;84;21022;-56
2021/06/27 00:14:37;;;;;;;2.85;1.22;;;;;;;29.41;49.96;100766.11;1647685;86;21501;-52
2021/06/27 00:17:04;;;;;;;2.37;1.50;;;;;;;29.41;49.66;100763.44;1642417;86;21037;-52
2021/06/27 00:19:31;;;;;;;1.92;1.30;;;;;;;29.42;49.64;100759.77;1653169;86;21092;-53
2021/06/27 00:21:58;;;;;;;1.77;1.40;;;;;;;29.39;49.48;100762.25;1655594;86;21053;-54
2021/06/27 00:24:24;;;;;;;8.73;2.02;;;;;;;29.38;49.62;100762.41;1655607;85;21121;-56
2021/06/27 00:26:51;;;;;;;6.08;1.70;;;;;;;29.38;49.65;100762.41;1657354;86;21042;-58
2021/06/27 00:29:18;;;;;;;2.10;1.87;;;;;;;29.37;49.81;100776.80;1660170;85;21088;-52
2021/06/27 00:31:45;;;;;;;2.92;1.62;;;;;;;29.34;49.95;100790.03;1652648;86;21041;-51
2021/06/27 00:34:12;;;;;;;2.15;1.80;;;;;;;29.30;50.05;100801.20;1639279;86;21078;-52
2021/06/27 00:36:40;;;;;;;3.47;1.77;;;;;;;29.27;49.72;100806.37;1648908;86;21530;-52
2021/06/27 00:39:07;;;;;;;2.00;1.57;;;;;;;29.22;49.84;100809.16;1655960;85;21105;-55
2021/06/27 00:41:34;;;;;;;3.75;2.00;;;;;;;29.18;50.10;100827.36;1652428;85;21100;-52
2021/06/27 00:44:01;;;;;;;1.82;1.72;;;;;;;29.15;50.21;100826.83;1644559;86;21533;-51
2021/06/27 00:46:28;;;;;;;4.37;2.02;;;;;;;29.12;50.24;100845.88;1637321;86;21590;-54
2021/06/27 00:48:54;;;;;;;3.17;1.90;;;;;;;29.08;50.34;100860.04;1632191;86;21071;-51
2021/06/27 00:51:22;;;;;;;3.27;1.95;;;;;;;29.05;50.14;100878.26;1639830;86;21152;-52
2021/06/27 00:53:50;;;;;;;3.08;1.87;;;;;;;28.96;50.22;100873.29;1653663;85;21128;-54
2021/06/27 00:56:17;;;;;;;2.40;1.70;;;;;;;28.88;50.68;100874.04;1651367;86;21033;-55
2021/06/27 00:58:44;;;;;;;2.60;1.90;;;;;;;28.79;50.93;100888.82;1656588;85;21101;-51
2021/06/27 01:01:11;;;;;;;3.15;1.57;;;;;;;28.74;51.43;100887.06;1653313;85;21043;-53
2021/06/27 01:03:38;;;;;;;4.25;1.77;;;;;;;28.68;51.84;100901.89;1650661;86;21060;-54
2021/06/27 01:06:06;;;;;;;14.60;2.08;;;;;;;28.64;52.26;100908.53;1649010;85;21545;-57
2021/06/27 01:08:32;;;;;;;3.47;1.70;;;;;;;28.59;52.35;100905.91;1655564;86;21356;-56
2021/06/27 01:11:00;;;;;;;5.17;1.92;;;;;;;28.54;52.18;100907.64;1658889;85;21068;-53
2021/06/27 01:13:27;;;;;;;3.35;1.60;;;;;;;28.55;52.12;100914.70;1657894;86;21085;-52
2021/06/27 01:15:54;;;;;;;3.22;1.67;;;;;;;28.57;51.59;100919.94;1652978;86;21056;-51
2021/06/27 01:18:22;;;;;;;1.60;1.37;;;;;;;28.59;51.10;100922.83;1654517;86;21081;-51
2021/06/27 01:20:49;;;;;;;4.05;2.00;;;;;;;28.62;49.19;100926.57;1650008;86;21077;-60
2021/06/27 01:23:17;;;;;;;1.95;1.80;;;;;;;28.63;48.80;100936.28;1658911;86;21016;-52
2021/06/27 01:25:50;;;;;;;3.52;1.70;;;;;;;28.63;48.51;100943.45;1653589;86;21001;-52
2021/06/27 01:28:17;;;;;;;2.67;1.98;;;;;;;28.61;47.91;100951.64;1626196;87;21597;-52
2021/06/27 01:30:44;;;;;;;3.22;1.77;;;;;;;28.61;48.45;100958.82;1619234;87;21125;-56
2021/06/27 01:33:17;;;;;;;5.67;1.87;;;;;;;28.60;48.81;100966.03;1613950;87;21589;-52
2021/06/27 01:35:45;;;;;;;5.00;2.08;;;;;;;28.59;49.44;100960.31;1618224;87;21073;-52
2021/06/27 01:38:13;;;;;;;5.62;2.60;;;;;;;28.54;50.08;100961.19;1618921;87;21526;-52
2021/06/27 01:40:40;;;;;;;3.37;1.92;;;;;;;28.56;50.82;100969.98;1621524;87;21562;-55
2021/06/27 01:43:16;;;;;;;3.30;2.50;;;;;;;28.57;51.08;100971.66;1627423;87;21061;-56
2021/06/27 01:45:47;;;;;;;3.55;2.62;;;;;;;28.56;51.39;100982.03;1607503;87;21598;-51
2021/06/27 01:48:15;;;;;;;4.00;2.58;;;;;;;28.52;51.89;100973.05;1609932;89;21585;-52
2021/06/27 01:50:45;;;;;;;4.20;3.02;;;;;;;28.50;52.56;100981.20;1595457;89;21087;-54
2021/06/27 01:53:14;;;;;;;3.95;2.52;;;;;;;28.47;53.21;100962.77;1588243;89;21067;-54
2021/06/27 01:55:42;;;;;;;4.12;2.80;;;;;;;28.42;53.70;100971.70;1590898;89;21074;-54
2021/06/27 01:58:09;;;;;;;5.17;2.77;;;;;;;28.40;54.35;100980.38;1585798;89;21122;-58
2021/06/27 02:00:36;;;;;;;5.47;3.55;;;;;;;28.38;54.73;100979.67;1590445;89;21150;-52
2021/06/27 02:03:04;;;;;;;5.00;3.25;;;;;;;28.33;54.86;100977.08;1585543;89;21077;-51
2021/06/27 02:05:31;;;;;;;4.30;3.40;;;;;;;28.29;55.25;100974.33;1584874;90;21127;-52
2021/06/27 02:07:58;;;;;;;9.50;3.62;;;;;;;28.25;55.50;100972.44;1589566;89;21134;-57
2021/06/27 02:10:27;;;;;;;5.70;3.40;;;;;;;28.22;55.77;100984.75;1587981;89;21078;-57
2021/06/27 02:12:57;;;;;;;7.42;3.77;;;;;;;28.19;55.58;100981.03;1593897;90;21126;-58
2021/06/27 02:15:23;;;;;;;7.20;4.22;;;;;;;28.16;55.82;100989.33;1590790;89;21067;-54
2021/06/27 02:18:11;;;;;;;4.92;3.25;;;;;;;28.13;55.69;100990.96;1589704;89;21696;-51
2021/06/27 02:20:38;;;;;;;7.42;3.92;;;;;;;28.10;55.64;100993.41;1597134;89;21050;-54
2021/06/27 02:23:05;;;;;;;9.80;4.37;;;;;;;28.08;55.66;100987.84;1590932;89;21534;-55
2021/06/27 02:25:33;;;;;;;6.10;3.75;;;;;;;28.06;55.42;100993.34;1596816;88;21114;-55
2021/06/27 02:27:59;;;;;;;7.45;4.10;;;;;;;28.04;55.60;100992.64;1602464;89;21030;-59
2021/06/27 02:30:28;;;;;;;14.40;4.53;;;;;;;28.03;55.69;100988.73;1605288;88;20990;-53
2021/06/27 02:32:55;;;;;;;9.75;4.62;;;;;;;28.02;55.71;100985.73;1605855;88;21080;-52
2021/06/27 02:35:22;;;;;;;11.33;4.60;;;;;;;28.02;55.88;100991.08;1594651;88;21070;-58
2021/06/27 02:37:49;;;;;;;8.98;4.97;;;;;;;28.02;55.84;100996.42;1589600;88;21724;-55
2021/06/27 02:40:16;;;;;;;7.78;4.10;;;;;;;28.03;55.92;100996.77;1590926;88;21095;-52
2021/06/27 02:42:43;;;;;;;10.32;4.70;;;;;;;28.04;56.06;101002.48;1613288;87;21070;-54
2021/06/27 02:45:11;;;;;;;6.67;3.80;;;;;;;28.03;56.21;100998.95;1629440;86;21084;-55
2021/06/27 02:47:38;;;;;;;7.35;4.15;;;;;;;28.05;56.11;101012.19;1654867;85;21022;-55
2021/06/27 02:50:10;;;;;;;7.25;4.00;;;;;;;28.06;56.16;101016.08;1656198;85;21057;-51
2021/06/27 02:52:37;;;;;;;8.93;4.67;;;;;;;28.07;56.19;101010.22;1654308;86;21049;-53
2021/06/27 02:55:07;;;;;;;7.92;4.85;;;;;;;28.10;56.30;101008.61;1656853;85;21076;-52
2021/06/27 02:57:34;;;;;;;6.15;4.03;;;;;;;28.11;56.07;101010.28;1659722;86;21608;-52
2021/06/27 03:00:06;;;;;;;6.55;3.90;;;;;;;28.11;56.07;101016.97;1658031;85;21065;-56
2021/06/27 03:02:33;;;;;;;5.45;4.28;;;;;;;28.11;56.21;101014.30;1657471;85;21041;-55
2021/06/27 03:04:59;;;;;;;6.97;4.35;;;;;;;28.11;56.15;101019.17;1644949;85;21604;-52
2021/06/27 03:07:28;;;;;;;5.60;4.03;;;;;;;28.11;56.31;101019.66;1651320;85;22751;-55
2021/06/27 03:09:54;;;;;;;6.80;3.98;;;;;;;28.11;56.22;101019.66;1656096;85;21036;-55
2021/06/27 03:12:21;;;;;;;7.03;4.00;;;;;;;28.10;56.46;101015.30;1645469;86;21033;-54
2021/06/27 03:14:48;;;;;;;7.90;4.00;;;;;;;28.11;56.33;101019.66;1653847;86;21014;-51
2021/06/27 03:17:16;;;;;;;9.18;4.30;;;;;;;28.11;56.27;101022.33;1647837;85;21494;-57
2021/06/27 03:19:44;;;;;;;12.45;4.40;;;;;;;28.09;56.15;101017.61;1653165;86;21556;-52
2021/06/27 03:22:11;;;;;;;8.65;4.00;;;;;;;28.09;56.24;101016.27;1656959;84;21045;-52
2021/06/27 03:24:38;;;;;;;5.87;3.42;;;;;;;28.10;55.81;101013.48;1655727;85;21413;-53
2021/06/27 03:27:06;;;;;;;5.20;3.90;;;;;;;28.11;55.79;101010.28;1653134;86;21049;-53
2021/06/27 03:29:33;;;;;;;5.97;3.90;;;;;;;28.11;55.97;101014.30;1648700;86;21066;-54
2021/06/27 03:31:59;;;;;;;6.62;4.03;;;;;;;28.12;56.11;101014.67;1653923;85;21072;-50
2021/06/27 03:34:26;;;;;;;5.40;3.37;;;;;;;28.16;55.93;101004.05;1658481;86;21524;-53
2021/06/27 03:36:53;;;;;;;10.70;3.67;;;;;;;28.18;55.81;101015.45;1632047;86;21031;-54
2021/06/27 03:39:20;;;;;;;4.90;3.20;;;;;;;28.18;55.46;101022.98;1643758;85;21036;-51
2021/06/27 03:44:19;;;;;;;;;;;;;;;28.21;54.71;101024.55;1579962;89;21098;-52
2021/06/27 03:46:46;;;;;;;4.97;3.40;;;;;;;28.20;54.22;101016.16;1583394;89;20105;-55
2021/06/27 03:49:13;;;;;;;4.08;3.10;;;;;;;28.16;54.40;101017.42;1559937;91;21106;-55
2021/06/27 03:51:41;;;;;;;4.92;3.02;;;;;;;28.15;54.15;101025.11;1586107;89;21087;-52
2021/06/27 03:54:08;;;;;;;6.50;3.70;;;;;;;28.14;54.11;101019.39;1555159;91;21573;-56
2021/06/27 03:56:34;;;;;;;4.50;3.05;;;;;;;28.13;53.80;101028.41;1558743;91;21108;-55
2021/06/27 03:59:02;;;;;;;4.83;2.90;;;;;;;28.13;54.00;101031.91;1560267;91;21117;-51
2021/06/27 04:01:29;;;;;;;4.65;2.65;;;;;;;28.10;53.52;101016.64;1557121;91;21176;-52
2021/06/27 04:03:56;;;;;;;4.85;3.02;;;;;;;28.07;53.51;101027.12;1560500;91;21125;-54
2021/06/27 04:06:23;;;;;;;5.78;2.92;;;;;;;28.13;53.57;101027.90;1553837;91;21076;-55
2021/06/27 04:08:49;;;;;;;3.85;2.70;;;;;;;28.19;53.37;101026.00;1557908;91;21193;-51
2021/06/27 04:11:18;;;;;;;5.62;2.72;;;;;;;28.26;52.72;101025.44;1589913;89;21579;-52
2021/06/27 04:13:46;;;;;;;5.17;3.08;;;;;;;28.37;52.69;101028.85;1581666;88;21092;-52
2021/06/27 04:16:12;;;;;;;5.80;3.08;;;;;;;28.53;52.40;101029.13;1549085;91;21618;-54
2021/06/27 04:18:39;;;;;;;6.55;3.35;;;;;;;28.74;52.26;101027.17;1563892;91;21133;-53
2021/06/27 04:21:06;;;;;;;5.62;3.40;;;;;;;28.95;50.87;101034.52;1550256;91;21395;-53
2021/06/27 04:23:36;;;;;;;8.18;3.33;;;;;;;29.01;50.53;101030.44;1558542;91;21089;-53
2021/06/27 04:26:03;;;;;;;5.55;3.02;;;;;;;29.02;50.45;101033.45;1582285;88;21059;-53
2021/06/27 04:28:30;;;;;;;5.92;2.67;;;;;;;29.00;50.45;101038.62;1578525;90;21613;-53
2021/06/27 04:30:56;;;;;;;5.97;3.10;;;;;;;28.96;49.93;101039.39;1592030;89;21095;-53
2021/06/27 04:33:23;;;;;;;4.03;3.22;;;;;;;28.91;50.31;101033.64;1588394;89;21073;-55
2021/06/27 04:35:50;;;;;;;7.25;3.17;;;;;;;28.86;49.92;101034.06;1573255;90;21626;-53
2021/06/27 04:38:19;;;;;;;6.67;4.30;;;;;;;28.83;50.13;101038.34;1579783;89;21118;-54
2021/06/27 04:40:46;;;;;;;4.83;3.60;;;;;;;28.79;51.15;101040.97;1586095;88;21532;-54
2021/06/27 04:43:14;;;;;;;6.22;4.05;;;;;;;28.77;51.76;101041.60;1615703;87;21558;-54
2021/06/27 04:45:41;;;;;;;5.42;3.62;;;;;;;28.77;52.06;101035.42;1648939;86;21520;-58
2021/06/27 04:48:08;;;;;;;7.55;3.62;;;;;;;28.75;52.12;101039.56;1651637;86;21041;-56
2021/06/27 04:50:36;;;;;;;6.08;4.30;;;;;;;28.74;52.42;101041.91;1648608;86;21061;-53
2021/06/27 04:53:03;;;;;;;5.95;3.05;;;;;;;28.74;52.56;101044.58;1645274;86;21550;-57
2021/06/27 04:55:30;;;;;;;6.33;3.50;;;;;;;28.72;52.43;101047.90;1651644;85;21405;-53
2021/06/27 04:57:56;;;;;;;11.33;3.50;;;;;;;28.71;52.29;101052.89;1657873;85;21230;-54
2021/06/27 05:00:23;;;;;;;6.00;3.20;;;;;;;28.69;51.90;101048.17;1650970;86;21625;-55
2021/06/27 05:02:51;;;;;;;7.12;3.40;;;;;;;28.67;51.44;101046.13;1641382;86;21054;-53
2021/06/27 05:05:19;;;;;;;5.03;3.50;;;;;;;28.68;51.35;101042.48;1642258;86;21108;-51
2021/06/27 05:07:48;;;;;;;4.62;3.70;;;;;;;28.71;51.69;101043.52;1656826;86;21541;-55
2021/06/27 05:10:14;;;;;;;4.58;3.92;;;;;;;28.77;51.74;101042.94;1637623;86;21065;-51
2021/06/27 05:12:41;;;;;;;4.62;3.45;;;;;;;28.82;51.24;101045.20;1621732;87;21530;-53
2021/06/27 05:15:10;;;;;;;11.75;4.05;;;;;;;28.85;50.89;101046.27;1589002;89;21105;-55
2021/06/27 05:17:36;;;;;;;7.90;4.12;;;;;;;28.88;50.92;101049.49;1625700;87;21527;-53
2021/06/27 05:20:05;;;;;;;6.70;4.20;;;;;;;28.95;50.67;101043.89;1628851;87;21035;-56
2021/06/27 05:22:32;;;;;;;8.00;4.08;;;;;;;29.04;50.53;101038.69;1633291;87;21029;-53
2021/06/27 05:24:59;;;;;;;5.42;4.03;;;;;;;29.08;50.15;101035.55;1633444;86;21057;-57
2021/06/27 05:27:25;;;;;;;8.35;4.05;;;;;;;29.14;49.93;101042.19;1629704;87;21555;-52
2021/06/27 05:29:52;;;;;;;6.70;4.05;;;;;;;29.15;49.94;101042.06;1634961;87;21046;-53
2021/06/27 05:32:19;;;;;;;6.40;3.80;;;;;;;29.17;49.76;101041.91;1636727;86;21023;-52
2021/06/27 05:34:46;;;;;;;6.80;4.20;;;;;;;29.17;49.81;101042.77;1631027;86;21130;-53
2021/06/27 05:37:13;;;;;;;7.05;4.37;;;;;;;29.20;49.74;101032.25;1627343;87;21113;-57
2021/06/27 05:39:40;;;;;;;10.90;4.28;;;;;;;29.20;49.97;101044.31;1626840;87;21122;-53
2021/06/27 05:42:07;;;;;;;9.05;3.90;;;;;;;29.20;49.58;101046.51;1630233;87;21117;-56
2021/06/27 05:44:34;;;;;;;6.33;3.47;;;;;;;29.24;50.03;101041.69;1635306;87;21094;-52
2021/06/27 05:47:01;;;;;;;8.85;4.15;;;;;;;29.28;49.44;101033.70;1637751;86;21073;-51
2021/06/27 05:49:28;;;;;;;7.97;4.05;;;;;;;29.33;49.37;101036.77;1631790;86;21050;-52
2021/06/27 05:51:55;;;;;;;6.20;4.47;;;;;;;29.38;49.39;101031.83;1632726;87;21529;-56
2021/06/27 05:54:22;;;;;;;7.22;4.47;;;;;;;29.47;49.19;101032.30;1588263;89;21079;-53
2021/06/27 05:56:48;;;;;;;6.00;3.62;;;;;;;29.53;49.11;101034.39;1630877;86;21023;-53
2021/06/27 05:59:16;;;;;;;9.35;4.78;;;;;;;29.58;48.55;101036.11;1620778;88;21066;-54
2021/06/27 06:01:42;;;;;;;7.00;4.12;;;;;;;29.64;48.57;101037.70;1618830;87;21599;-54
2021/06/27 06:04:10;;;;;;;7.62;4.20;;;;;;;29.64;48.20;101039.05;1633692;87;21192;-54
2021/06/27 06:06:37;;;;;;;6.30;3.50;;;;;;;29.68;48.47;101035.08;1635563;86;21138;-55
2021/06/27 06:09:05;;;;;;;9.05;4.00;;;;;;;29.78;48.31;101035.05;1630445;86;21097;-57
2021/06/27 06:11:33;;;;;;;5.87;3.58;;;;;;;29.88;47.69;101038.55;1638459;87;21102;-57
2021/06/27 06:14:01;;;;;;;7.30;4.20;;;;;;;29.93;47.79;101047.46;1627535;87;21094;-55
2021/06/27 06:16:28;;;;;;;6.62;3.65;;;;;;;30.01;47.70;101043.03;1634727;86;21055;-54
2021/06/27 06:18:56;;;;;;;7.53;3.70;;;;;;;30.14;47.40;101042.19;1636091;86;21109;-55
2021/06/27 06:21:23;;;;;;;8.90;3.35;;;;;;;30.27;47.13;101035.10;1635397;87;21078;-55
2021/06/27 06:23:50;;;;;;;7.87;3.58;;;;;;;30.37;46.87;101042.12;1633891;86;21166;-54
2021/06/27 06:26:16;;;;;;;6.92;3.72;;;;;;;30.47;46.50;101046.91;1633617;87;21102;-55
2021/06/27 06:28:43;;;;;;;6.42;4.10;;;;;;;30.57;46.71;101048.65;1636516;87;21518;-53
2021/06/27 06:31:11;;;;;;;6.80;3.83;;;;;;;30.65;46.65;101057.63;1637334;87;21546;-55
2021/06/27 06:33:39;;;;;;;7.67;3.80;;;;;;;30.71;46.73;101049.47;1635216;87;21582;-56
2021/06/27 06:36:08;;;;;;;7.22;3.92;;;;;;;30.78;46.53;101047.83;1627469;87;21630;-53
2021/06/27 06:38:35;;;;;;;10.50;3.87;;;;;;;30.82;45.97;101053.23;1629141;87;21098;-55
2021/06/27 06:41:01;;;;;;;6.37;3.50;;;;;;;30.80;45.29;101052.55;1630953;87;21105;-53
2021/06/27 06:43:28;;;;;;;4.75;3.50;;;;;;;30.78;45.68;101055.40;1641516;86;21064;-55
2021/06/27 06:45:55;;;;;;;9.45;4.08;;;;;;;30.77;45.52;101053.70;1635233;87;21045;-54
2021/06/27 06:48:22;;;;;;;5.58;3.55;;;;;;;30.78;45.80;101053.20;1644063;86;21058;-53
2021/06/27 06:50:50;;;;;;;5.37;3.55;;;;;;;30.77;45.74;101048.84;1658353;86;21058;-55
2021/06/27 06:53:16;;;;;;;5.25;3.65;;;;;;;30.78;45.45;101046.48;1644178;85;21021;-53
2021/06/27 06:55:43;;;;;;;7.40;4.00;;;;;;;30.77;45.69;101048.33;1659518;86;21159;-58
2021/06/27 06:58:10;;;;;;;10.72;3.50;;;;;;;30.78;45.50;101043.80;1645897;86;21130;-53
2021/06/27 07:00:36;;;;;;;5.80;2.87;;;;;;;30.75;45.30;101053.01;1657836;86;21140;-54
2021/06/27 07:03:04;;;;;;;5.85;3.75;;;;;;;30.67;45.59;101054.78;1631175;86;21534;-55
2021/06/27 07:05:33;;;;;;;5.20;3.50;;;;;;;30.62;46.10;101059.30;1635709;86;21230;-56
2021/06/27 07:08:00;;;;;;;8.58;3.40;;;;;;;30.62;45.77;101055.27;1598387;88;21043;-56
2021/06/27 07:10:27;;;;;;;6.50;3.10;;;;;;;30.63;46.06;101050.72;1599554;89;21045;-55
2021/06/27 07:12:54;;;;;;;6.20;3.50;;;;;;;30.66;45.77;101061.17;1605612;88;21086;-56
2021/06/27 07:15:22;;;;;;;6.80;3.72;;;;;;;30.65;46.31;101059.46;1637771;86;21085;-57
2021/06/27 07:17:49;;;;;;;5.37;3.17;;;;;;;30.66;46.12;101061.17;1587577;87;21593;-55
2021/06/27 07:20:16;;;;;;;9.10;4.10;;;;;;;30.68;45.56;101056.48;1625399;87;21104;-57
2021/06/27 07:22:42;;;;;;;6.45;3.08;;;;;;;30.70;45.72;101060.70;1629107;87;21066;-57
2021/06/27 07:25:11;;;;;;;6.85;3.55;;;;;;;30.78;45.83;101066.64;1631694;87;21109;-56
2021/06/27 07:27:37;;;;;;;6.20;3.50;;;;;;;30.83;45.99;101064.34;1627287;86;21590;-57
2021/06/27 07:30:07;;;;;;;10.50;3.60;;;;;;;30.89;45.88;101053.00;1624075;87;21046;-57
2021/06/27 07:32:33;;;;;;;5.35;3.35;;;;;;;30.91;45.58;101057.72;1615126;88;21542;-53
2021/06/27 07:35:00;;;;;;;8.10;3.42;;;;;;;30.92;45.55;101056.21;1642539;86;21098;-56
2021/06/27 07:37:28;;;;;;;6.22;2.98;;;;;;;30.92;45.55;101064.77;1650745;85;21545;-57
2021/06/27 07:39:55;;;;;;;6.42;3.47;;;;;;;30.91;45.44;101063.09;1661035;86;21144;-55
2021/06/27 07:42:21;;;;;;;3.40;3.10;;;;;;;30.91;45.62;101071.16;1662660;85;21040;-55
2021/06/27 07:44:48;;;;;;;7.37;3.40;;;;;;;30.94;46.05;101072.16;1648671;85;21002;-58
2021/06/27 07:47:15;;;;;;;5.45;3.47;;;;;;;30.95;45.92;101068.50;1648070;86;20989;-52
2021/06/27 07:49:42;;;;;;;5.25;3.15;;;;;;;30.96;46.01;101075.54;1663687;84;21068;-55
2021/06/27 07:52:10;;;;;;;4.87;3.35;;;;;;;30.96;46.09;101068.83;1655562;85;21113;-54
2021/06/27 07:54:38;;;;;;;6.95;3.55;;;;;;;30.96;46.19;101072.86;1665873;85;21554;-54
2021/06/27 07:57:07;;;;;;;7.17;3.45;;;;;;;30.89;46.19;101073.97;1648791;85;21060;-55
2021/06/27 07:59:34;;;;;;;3.33;2.90;;;;;;;30.86;46.57;101073.45;1654879;85;21013;-56
2021/06/27 08:02:01;;;;;;;8.43;3.45;;;;;;;30.85;46.94;101071.78;1663863;86;21089;-54
2021/06/27 08:04:27;;;;;;;5.33;3.20;;;;;;;30.88;46.97;101075.48;1661113;85;21534;-54
2021/06/27 08:06:54;;;;;;;6.83;3.58;;;;;;;30.91;46.97;101063.94;1652396;86;21045;-54
2021/06/27 08:09:21;;;;;;;4.00;3.30;;;;;;;30.93;46.71;101061.94;1640830;85;21649;-54
2021/06/27 08:11:48;;;;;;;8.45;3.58;;;;;;;30.96;46.41;101063.45;1626063;86;21061;-54
2021/06/27 08:14:15;;;;;;;4.33;3.33;;;;;;;30.99;45.95;101066.69;1630212;87;21030;-55
2021/06/27 08:16:42;;;;;;;11.22;3.70;;;;;;;31.00;45.70;101067.51;1580020;89;21577;-54
2021/06/27 08:19:09;;;;;;;6.95;3.50;;;;;;;31.03;46.17;101067.20;1629048;87;21515;-54
2021/06/27 08:21:35;;;;;;;5.83;3.42;;;;;;;31.04;46.36;101063.50;1634360;87;21523;-59
2021/06/27 08:24:03;;;;;;;4.80;3.58;;;;;;;31.04;46.33;101051.41;1623517;87;21023;-53
2021/06/27 08:26:29;;;;;;;7.50;4.03;;;;;;;31.05;46.30;101053.11;1624504;86;21062;-54
2021/06/27 08:28:56;;;;;;;8.85;4.10;;;;;;;31.07;46.30;101049.77;1626410;87;21543;-54
2021/06/27 08:31:24;;;;;;;5.70;3.80;;;;;;;31.10;46.21;101049.44;1629068;87;21102;-58
2021/06/27 08:33:51;;;;;;;7.67;4.00;;;;;;;31.09;46.82;101055.83;1633867;86;21047;-54
2021/06/27 08:36:19;;;;;;;5.15;3.55;;;;;;;31.12;46.71;101056.34;1599510;88;21549;-53
2021/06/27 08:38:46;;;;;;;5.70;3.42;;;;;;;31.15;46.85;101053.84;1623292;87;21542;-54
2021/06/27 08:41:17;;;;;;;5.60;3.80;;;;;;;31.17;46.37;101053.19;1659266;86;21042;-54
2021/06/27 08:43:44;;;;;;;7.97;3.70;;;;;;;31.20;46.47;101056.92;1634699;87;21584;-55
2021/06/27 08:46:13;;;;;;;5.72;3.77;;;;;;;31.23;46.31;101052.55;1604307;88;21103;-54
2021/06/27 08:48:42;;;;;;;6.37;3.50;;;;;;;31.26;46.14;101054.94;1578761;89;21058;-54
2021/06/27 08:51:09;;;;;;;6.30;3.20;;;;;;;31.27;46.28;101054.77;1630091;87;21062;-53
2021/06/27 08:53:39;;;;;;;6.45;3.72;;;;;;;31.31;46.64;101055.28;1618404;87;21602;-54
2021/06/27 08:56:08;;;;;;;9.53;3.97;;;;;;;31.33;46.46;101057.31;1623951;87;21094;-55
2021/06/27 08:58:39;;;;;;;4.73;3.30;;;;;;;31.32;46.91;101053.77;1662159;86;21034;-53
2021/06/27 09:01:13;;;;;;;9.35;3.50;;;;;;;31.32;46.91;101053.77;1663988;85;21667;-57
2021/06/27 09:03:40;;;;;;;7.87;3.98;;;;;;;31.38;46.88;101059.03;1666692;85;21085;-57
2021/06/27 09:06:09;;;;;;;8.45;4.08;;;;;;;31.42;46.69;101053.71;1629444;85;21058;-57
2021/06/27 09:08:36;;;;;;;5.30;3.70;;;;;;;31.44;46.90;101050.36;1658686;86;21092;-57
2021/06/27 09:11:14;;;;;;;10.05;3.47;;;;;;;31.46;46.57;101056.42;1655089;85;21549;-55
2021/06/27 09:13:44;;;;;;;7.60;4.67;;;;;;;31.49;46.25;101049.88;1650175;86;21064;-57
2021/06/27 09:16:19;;;;;;;7.92;4.70;;;;;;;31.50;46.74;101048.86;1650543;86;21516;-53
2021/06/27 09:18:48;;;;;;;8.00;4.35;;;;;;;31.50;47.26;101055.09;1610189;87;21085;-57
2021/06/27 09:21:15;;;;;;;12.75;4.55;;;;;;;31.49;47.63;101046.67;1646648;85;21085;-55
2021/06/27 09:23:47;;;;;;;6.67;3.77;;;;;;;31.49;48.11;101053.39;1641404;86;21033;-54
2021/06/27 09:26:31;;;;;;;4.03;3.27;;;;;;;31.48;47.98;101054.91;1659579;86;21049;-56
2021/06/27 09:28:59;;;;;;;7.87;3.62;;;;;;;31.48;47.57;101063.83;1644486;86;21006;-53
2021/06/27 09:31:43;;;;;;;4.87;4.17;;;;;;;31.48;47.17;101047.69;1653885;86;21142;-55
2021/06/27 09:34:14;;;;;;;5.67;4.15;;;;;;;31.47;46.89;101052.71;1647303;86;21042;-53
2021/06/27 09:36:47;;;;;;;7.17;3.58;;;;;;;31.50;47.42;101057.78;1664253;86;21041;-53
2021/06/27 09:39:15;;;;;;;5.87;3.87;;;;;;;31.52;47.19;101053.09;1591284;89;21046;-57
2021/06/27 09:41:53;;;;;;;4.92;4.08;;;;;;;31.56;47.95;101053.11;1593466;88;21106;-53
2021/06/27 09:44:22;;;;;;;7.90;6.60;;;;;;;31.61;47.02;101061.55;1592791;88;21135;-54
2021/06/27 09:46:51;;;;;;;4.28;3.72;;;;;;;31.64;46.66;101061.21;1579354;89;21085;-56
2021/06/27 09:49:32;;;;;;;6.80;4.42;;;;;;;31.66;46.81;101059.70;1592500;88;21607;-54
2021/06/27 09:54:29;;;;;;;5.65;3.77;;;;;;;31.73;47.08;101069.67;1529145;93;21045;-58
2021/06/27 09:56:56;;;;;;;6.05;3.80;;;;;;;31.76;46.86;101072.02;1511706;93;21610;-54
2021/06/27 10:02:09;;;;;;;4.92;3.52;;;;;;;31.80;46.69;101068.00;1530762;93;21136;-54
2021/06/27 10:04:38;;;;;;;4.65;3.98;;;;;;;31.83;46.70;101073.08;1531365;93;21148;-52
2021/06/27 10:07:06;;;;;;;5.25;3.12;;;;;;;31.87;46.80;101074.44;1522243;93;21105;-56
2021/06/27 10:09:38;;;;;;;8.30;3.35;;;;;;;31.92;46.97;101076.11;1524194;93;21097;-54
2021/06/27 10:12:19;;;;;;;6.22;3.95;;;;;;;31.97;46.53;101072.48;1528097;93;21068;-55
2021/06/27 10:14:55;;;;;;;5.50;3.40;;;;;;;32.04;46.40;101078.05;1512126;93;21096;-54
2021/06/27 10:17:25;;;;;;;6.78;3.33;;;;;;;32.07;46.03;101078.56;1508851;93;22350;-56
2021/06/27 10:19:53;;;;;;;4.67;3.40;;;;;;;32.09;45.58;101073.86;1524218;93;21061;-54
2021/06/27 10:22:23;;;;;;;6.20;3.58;;;;;;;32.12;45.25;101074.53;1527154;93;21073;-58
2021/06/27 10:24:50;;;;;;;3.90;2.98;;;;;;;32.12;45.38;101075.88;1526342;93;21105;-54
2021/06/27 10:27:17;;;;;;;3.98;3.58;;;;;;;32.09;45.41;101083.78;1513645;93;21588;-54
2021/06/27 10:29:47;;;;;;;4.90;3.42;;;;;;;32.07;45.52;101083.95;1514019;93;21123;-55
2021/06/27 10:32:16;;;;;;;4.78;3.20;;;;;;;32.07;46.11;101083.95;1521070;92;21100;-53
2021/06/27 10:34:43;;;;;;;6.92;3.58;;;;;;;32.07;46.04;101083.95;1520368;93;21041;-55
2021/06/27 10:37:15;;;;;;;5.53;3.45;;;;;;;32.07;45.79;101077.22;1591780;89;21149;-54
2021/06/27 10:40:03;;;;;;;3.72;3.40;;;;;;;32.11;45.69;101072.87;1598097;89;21064;-55
2021/06/27 10:42:54;;;;;;;8.18;3.72;;;;;;;32.14;44.97;101079.25;1469632;95;21109;-56
2021/06/27 10:45:30;;;;;;;4.03;3.35;;;;;;;32.17;45.31;101080.28;1471128;95;21117;-54
2021/06/27 10:48:00;;;;;;;5.95;3.33;;;;;;;32.21;44.88;101078.95;1437753;97;21699;-55
2021/06/27 10:50:52;;;;;;;6.12;3.95;;;;;;;32.23;43.53;101075.59;1460302;95;21238;-55
2021/06/27 10:53:19;;;;;;;2.98;2.77;;;;;;;32.25;43.21;101080.30;1473787;95;21133;-53
2021/06/27 10:55:46;;;;;;;7.55;3.52;;;;;;;32.26;42.88;101088.70;1460366;97;21616;-54
2021/06/27 10:58:16;;;;;;;3.70;3.40;;;;;;;32.27;43.54;101080.98;1467267;94;21097;-57
2021/06/27 11:00:59;;;;;;;8.28;5.10;;;;;;;32.31;44.60;101083.68;1523259;93;21084;-55
2021/06/27 11:03:34;;;;;;;4.00;3.17;;;;;;;32.36;43.91;101086.20;1522794;94;21165;-60
2021/06/27 11:06:06;;;;;;;8.83;3.52;;;;;;;32.40;42.67;101090.25;1483222;95;21120;-56
2021/06/27 11:08:41;;;;;;;7.60;3.85;;;;;;;32.43;42.77;101086.39;1517590;94;21084;-53
2021/06/27 11:11:20;;;;;;;5.22;3.62;;;;;;;32.43;43.37;101093.97;1518578;94;21185;-53
2021/06/27 11:14:15;;;;;;;5.55;2.90;;;;;;;32.43;42.57;101091.77;1490727;93;21089;-52
2021/06/27 11:17:06;;;;;;;4.95;3.47;;;;;;;32.43;42.68;101094.47;1512642;94;21936;-60
2021/06/27 11:19:40;;;;;;;8.25;4.25;;;;;;;32.44;42.11;101089.44;1542969;92;21122;-54
2021/06/27 11:22:24;;;;;;;5.58;3.67;;;;;;;32.47;42.20;101098.05;1541173;92;21086;-55
2021/06/27 11:24:55;;;;;;;5.40;4.05;;;;;;;32.50;42.53;101087.45;1555675;91;21085;-53
2021/06/27 11:27:35;;;;;;;6.80;3.95;;;;;;;32.52;42.65;101084.09;1555601;90;21070;-58
2021/06/27 11:30:26;;;;;;;10.60;4.40;;;;;;;32.55;42.50;101083.74;1570932;90;21142;-57
2021/06/27 11:32:54;;;;;;;10.43;5.47;;;;;;;32.53;41.99;101079.88;1576896;89;21077;-55
2021/06/27 11:35:39;;;;;;;7.78;5.78;;;;;;;32.54;42.13;101077.50;1591405;89;21112;-57
2021/06/27 11:38:06;;;;;;;6.80;5.12;;;;;;;32.57;42.77;101080.38;1561573;91;21121;-56
2021/06/27 11:40:49;;;;;;;5.80;5.25;;;;;;;32.57;42.93;101074.98;1549176;91;21122;-56